Time;durP1;ratioP1;P1;durP2;ratioP2;P2;SDS_P1;SDS_P2;PMS_P1;PMS_P2;Temp;Humidity;BMP_temperature;BMP_pressure;BME280_temperature;BME280_humidity;BME280_pressure;Samples;Min_cycle;Max_cycle;Signal;HPM_P1;HPM_P2
2022/02/11 00:00:26;;;;;;;;;;;;;;;29.24;46.31;100864.78;5093812;27;70232;-33
2022/02/11 00:07:56;;;;;;;;;;;;;;;29.36;48.30;100877.47;5069629;28;66747;-35
2022/02/11 00:10:26;;;;;;;;;;;;;;;29.45;50.27;100877.22;5070147;28;70815;-34
2022/02/11 00:12:56;;;;;;;;;;;;;;;29.50;50.97;100885.53;5055454;28;66640;-36
2022/02/11 00:15:42;;;;;;;;;;;;;;;29.60;51.96;100894.03;5063768;27;70665;-35
2022/02/11 00:18:13;;;;;;;;;;;;;;;29.64;53.33;100898.00;5070444;28;66763;-36
2022/02/11 00:20:45;;;;;;;;;;;;;;;29.68;53.59;100910.06;5075408;28;69665;-37
2022/02/11 00:23:16;;;;;;;;;;;;;;;29.73;54.56;100912.97;5073505;28;64919;-35
2022/02/11 00:25:53;;;;;;;;;;;;;;;29.76;55.14;100912.53;5069774;27;70257;-36
2022/02/11 00:29:20;;;;;;;;;;;;;;;29.77;59.29;100918.78;5074278;28;65995;-36
2022/02/11 00:31:46;;;;;;;;;;;;;;;29.79;58.13;100912.13;5067913;28;69808;-35
2022/02/11 00:34:14;;;;;;;;;;;;;;;29.82;56.37;100922.50;5063682;28;66828;-36
2022/02/11 00:36:58;;;;;;;;;;;;;;;29.89;57.44;100921.66;5074574;28;70587;-36
2022/02/11 01:02:41;;;;;;;;;;;;;;;30.17;58.97;100960.06;5023964;28;66716;-36
2022/02/11 01:05:07;;;;;;;;;;;;;;;30.22;59.19;100960.25;5066964;28;71512;-36
2022/02/11 01:07:37;;;;;;;;;;;;;;;30.26;58.51;100966.94;5070177;28;66640;-36
2022/02/11 01:10:07;;;;;;;;;;;;;;;30.30;58.47;100961.09;5073706;27;70545;-39
2022/02/11 01:12:40;;;;;;;;;;;;;;;30.32;58.32;100970.66;5073176;28;65225;-36
2022/02/11 01:15:10;;;;;;;;;;;;;;;30.36;57.79;100971.03;5071075;28;69906;-37
2022/02/11 01:17:53;;;;;;;;;;;;;;;30.39;57.60;100973.31;5075012;28;65983;-37
2022/02/11 01:23:34;;;;;;;;;;;;;;;30.44;57.33;100978.91;5077705;28;66009;-37
2022/02/11 01:34:21;;;;;;;;;;;;;;;30.52;56.31;100984.09;5070782;28;65905;-36
2022/02/11 01:51:19;;;;;;;;;;;;;;;30.64;55.26;101012.13;5068495;28;65650;-37
2022/02/11 01:54:17;;;;;;;;;;;;;;;30.66;55.65;101004.63;5066374;28;70059;-37
2022/02/11 01:57:00;;;;;;;;;;;;;;;30.67;55.69;101006.31;5068252;28;66381;-36
2022/02/11 02:05:58;;;;;;;;;;;;;;;30.72;55.41;101009.19;5066403;28;70117;-37
2022/02/11 02:14:00;;;;;;;;;;;;;;;30.79;54.90;100998.34;5077270;28;65422;-37
2022/02/11 02:22:25;;;;;;;;;;;;;;;30.84;53.96;100989.56;5071583;28;70334;-37
2022/02/11 02:58:58;;;;;;;;;;;;;;;31.11;53.59;100985.63;5078237;28;66712;-38
2022/02/11 03:31:33;;;;;;;;;;;;;;;31.29;52.84;100971.34;5065557;28;70001;-37
2022/02/11 03:48:55;;;;;;;;;;;;;;;31.57;52.16;100949.22;5071651;27;66639;-41
2022/02/11 04:55:07;;;;;;;;;;;;;;;32.30;50.47;100852.59;5065680;28;67060;-40
2022/02/11 05:00:26;;;;;;;;;;;;;;;32.35;50.18;100852.72;5070485;28;66106;-38
2022/02/11 05:02:57;;;;;;;;;;;;;;;32.38;50.01;100844.13;5067908;28;69456;-38
2022/02/11 05:05:27;;;;;;;;;;;;;;;32.40;49.95;100842.00;5075526;28;66378;-38
2022/02/11 05:08:01;;;;;;;;;;;;;;;32.43;49.93;100844.25;5086562;27;70335;-39
2022/02/11 05:10:31;;;;;;;;;;;;;;;32.45;50.03;100839.41;5069109;28;66014;-38
2022/02/11 05:13:03;;;;;;;;;;;;;;;32.47;49.91;100839.22;5073797;28;69416;-39
2022/02/11 05:15:33;;;;;;;;;;;;;;;32.49;49.91;100834.41;5063432;28;66500;-37
2022/02/11 05:18:05;;;;;;;;;;;;;;;32.51;49.66;100820.56;5092462;27;69273;-38
2022/02/11 05:20:35;;;;;;;;;;;;;;;32.54;49.78;100820.09;5058463;28;66033;-38
2022/02/11 05:23:06;;;;;;;;;;;;;;;32.54;49.58;100820.09;5072287;28;70396;-36
2022/02/11 05:25:39;;;;;;;;;;;;;;;32.55;49.82;100805.47;5071641;28;65548;-37
2022/02/11 05:28:11;;;;;;;;;;;;;;;32.57;49.38;100814.19;5070550;28;70094;-37
2022/02/11 05:30:42;;;;;;;;;;;;;;;32.56;49.43;100796.25;5071654;28;66026;-38
2022/02/11 05:33:13;;;;;;;;;;;;;;;32.57;49.47;100798.75;5077113;27;70084;-38
2022/02/11 05:35:43;;;;;;;;;;;;;;;32.58;49.47;100789.53;5077404;28;66263;-38
2022/02/11 05:38:13;;;;;;;;;;;;;;;32.61;49.69;100777.38;5077073;28;70029;-37
2022/02/11 05:40:44;;;;;;;;;;;;;;;32.61;49.38;100774.66;5074757;27;66066;-38
2022/02/11 05:43:14;;;;;;;;;;;;;;;32.63;49.56;100772.56;5072987;28;70569;-37
2022/02/11 05:45:45;;;;;;;;;;;;;;;32.66;49.63;100763.94;5073443;28;66354;-38
2022/02/11 05:48:14;;;;;;;;;;;;;;;32.67;49.51;100760.13;5073279;28;69747;-37
2022/02/11 05:50:44;;;;;;;;;;;;;;;32.68;49.38;100757.19;5094747;27;66050;-38
2022/02/11 05:53:16;;;;;;;;;;;;;;;32.70;49.50;100749.63;5067081;28;69781;-39
2022/02/11 05:55:45;;;;;;;;;;;;;;;32.73;49.61;100748.31;5057651;28;66248;-38
2022/02/11 05:58:17;;;;;;;;;;;;;;;32.74;49.30;100750.00;5069825;28;69228;-38
2022/02/11 06:00:47;;;;;;;;;;;;;;;32.76;49.22;100734.28;5068888;28;67072;-37
2022/02/11 06:03:19;;;;;;;;;;;;;;;32.80;49.20;100732.75;5076877;28;69241;-37
2022/02/11 06:05:49;;;;;;;;;;;;;;;32.82;49.54;100736.06;5052016;28;65996;-38
2022/02/11 06:08:20;;;;;;;;;;;;;;;32.85;49.29;100729.34;5060079;28;69587;-39
2022/02/11 06:10:50;;;;;;;;;;;;;;;32.87;49.03;100725.28;5076047;27;65421;-38
2022/02/11 06:13:22;;;;;;;;;;;;;;;32.90;49.10;100722.13;5055567;28;69550;-37
2022/02/11 06:15:52;;;;;;;;;;;;;;;32.92;48.96;100714.53;5074912;28;65720;-37
2022/02/11 06:18:23;;;;;;;;;;;;;;;32.94;48.98;100712.41;5073521;28;70031;-38
2022/02/11 06:20:53;;;;;;;;;;;;;;;32.98;49.02;100711.94;5069976;28;66106;-37
2022/02/11 06:23:25;;;;;;;;;;;;;;;32.99;49.05;100713.56;5069190;27;69705;-37
2022/02/11 06:25:55;;;;;;;;;;;;;;;33.03;48.93;100699.31;5068892;28;65407;-36
2022/02/11 06:28:26;;;;;;;;;;;;;;;33.06;48.92;100703.44;5071943;28;70416;-38
2022/02/11 06:30:56;;;;;;;;;;;;;;;33.08;49.06;100699.44;5069940;28;66537;-37
2022/02/11 06:33:28;;;;;;;;;;;;;;;33.09;48.87;100689.38;5073885;28;70692;-37
2022/02/11 06:35:59;;;;;;;;;;;;;;;33.12;48.84;100680.75;5076657;27;66755;-36
2022/02/11 06:38:29;;;;;;;;;;;;;;;33.15;48.87;100675.66;5073842;28;70382;-38
2022/02/11 06:40:59;;;;;;;;;;;;;;;33.18;48.77;100668.91;5071228;28;66051;-37
2022/02/11 06:43:31;;;;;;;;;;;;;;;33.21;48.66;100668.44;5078098;28;69300;-37
2022/02/11 06:46:04;;;;;;;;;;;;;;;33.22;48.59;100661.94;5075085;28;66881;-37
2022/02/11 06:48:34;;;;;;;;;;;;;;;33.25;48.56;100658.72;5074314;28;70006;-37
2022/02/11 06:51:05;;;;;;;;;;;;;;;33.27;48.40;100662.03;5075436;28;66537;-37
2022/02/11 06:53:36;;;;;;;;;;;;;;;33.30;48.28;100656.09;5071598;27;69959;-37
2022/02/11 06:56:06;;;;;;;;;;;;;;;33.33;48.49;100650.19;5071614;28;66081;-37
2022/02/11 06:58:35;;;;;;;;;;;;;;;33.35;48.41;100642.63;5072614;28;69675;-38
2022/02/11 07:01:05;;;;;;;;;;;;;;;33.37;48.38;100645.91;5073066;27;66540;-37
2022/02/11 07:03:37;;;;;;;;;;;;;;;33.38;48.33;100636.69;5084795;27;70332;-37
2022/02/11 07:06:07;;;;;;;;;;;;;;;33.40;48.43;100635.63;5069749;27;65613;-37
2022/02/11 07:08:38;;;;;;;;;;;;;;;33.42;48.43;100630.75;5078062;28;69967;-37
2022/02/11 07:11:09;;;;;;;;;;;;;;;33.43;48.26;100627.78;5050510;28;65153;-37
2022/02/11 07:13:40;;;;;;;;;;;;;;;33.45;48.25;100619.41;5068471;27;69864;-37
2022/02/11 07:16:10;;;;;;;;;;;;;;;33.47;48.36;100618.09;5070889;28;67204;-38
2022/02/11 07:18:42;;;;;;;;;;;;;;;33.48;48.12;100610.75;5073915;28;70275;-36
2022/02/11 07:21:11;;;;;;;;;;;;;;;33.49;48.01;100615.09;5066504;28;65759;-37
2022/02/11 07:23:43;;;;;;;;;;;;;;;33.50;48.03;100614.06;5074048;27;69024;-39
2022/02/11 07:26:12;;;;;;;;;;;;;;;33.52;47.99;100598.31;5085890;27;65493;-37
2022/02/11 07:28:44;;;;;;;;;;;;;;;33.54;48.03;100623.41;5073545;28;69231;-37
2022/02/11 07:31:14;;;;;;;;;;;;;;;33.55;47.95;100619.63;5075643;28;65870;-37
2022/02/11 07:33:45;;;;;;;;;;;;;;;33.55;47.91;100620.44;5073748;28;70653;-37
2022/02/11 07:36:15;;;;;;;;;;;;;;;33.55;47.96;100609.56;5070241;28;66042;-38
2022/02/11 07:38:47;;;;;;;;;;;;;;;33.55;47.97;100614.19;5071727;28;68540;-37
2022/02/11 07:41:17;;;;;;;;;;;;;;;33.56;47.84;100615.81;5066336;28;66020;-36
2022/02/11 07:43:48;;;;;;;;;;;;;;;33.57;48.08;100618.31;5073664;28;69075;-36
2022/02/11 07:46:20;;;;;;;;;;;;;;;33.57;48.02;100617.47;5065626;28;65835;-38
2022/02/11 07:48:50;;;;;;;;;;;;;;;33.57;48.08;100612.03;5072264;28;69772;-37
2022/02/11 07:51:20;;;;;;;;;;;;;;;33.57;48.17;100612.03;5072983;28;66143;-38
2022/02/11 07:53:52;;;;;;;;;;;;;;;33.59;47.87;100612.59;5069120;28;69538;-37
2022/02/11 07:56:22;;;;;;;;;;;;;;;33.59;47.87;100601.72;5065406;28;66751;-38
2022/02/11 07:58:52;;;;;;;;;;;;;;;33.59;48.19;100604.44;5066935;27;69399;-37
2022/02/11 08:01:21;;;;;;;;;;;;;;;33.60;48.00;100600.69;5074407;28;65404;-38
2022/02/11 08:03:52;;;;;;;;;;;;;;;33.61;48.09;100607.75;5071860;28;70434;-38
2022/02/11 08:06:22;;;;;;;;;;;;;;;33.62;48.26;100595.78;5071928;28;67065;-38
2022/02/11 08:08:52;;;;;;;;;;;;;;;33.63;47.98;100594.75;5076740;28;69432;-37
2022/02/11 08:11:21;;;;;;;;;;;;;;;33.64;47.92;100601.81;5075074;28;66316;-37
2022/02/11 08:13:51;;;;;;;;;;;;;;;33.65;48.22;100587.13;5073110;28;71171;-37
2022/02/11 08:16:39;;;;;;;;;;;;;;;33.67;48.07;100579.56;5074082;28;66799;-37
2022/02/11 08:19:09;;;;;;;;;;;;;;;33.70;48.13;100578.25;5074672;28;70608;-38
2022/02/11 08:21:39;;;;;;;;;;;;;;;33.73;47.94;100584.00;5073800;28;66221;-37
2022/02/11 08:24:09;;;;;;;;;;;;;;;33.75;47.93;100587.31;5071120;27;68524;-38
2022/02/11 08:26:39;;;;;;;;;;;;;;;33.78;47.91;100584.09;5078417;28;65524;-38
2022/02/11 08:29:11;;;;;;;;;;;;;;;33.81;47.99;100586.31;5072869;28;70078;-37
2022/02/11 08:31:42;;;;;;;;;;;;;;;33.84;47.99;100584.19;5075762;27;66986;-36
2022/02/11 08:34:12;;;;;;;;;;;;;;;33.87;47.83;100583.69;5076437;27;69629;-39
2022/02/11 08:36:42;;;;;;;;;;;;;;;33.90;47.84;100580.47;5069732;28;65679;-36
2022/02/11 08:39:12;;;;;;;;;;;;;;;33.93;47.90;100583.50;5071311;28;70190;-37
2022/02/11 08:41:42;;;;;;;;;;;;;;;33.96;47.83;100582.19;5072665;28;65592;-37
2022/02/11 08:44:12;;;;;;;;;;;;;;;33.98;47.77;100580.06;5074498;28;69250;-37
2022/02/11 08:46:42;;;;;;;;;;;;;;;34.02;47.72;100592.09;5074123;28;66814;-37
2022/02/11 08:49:12;;;;;;;;;;;;;;;34.05;47.98;100588.09;5069747;28;69942;-37
2022/02/11 08:51:42;;;;;;;;;;;;;;;34.06;47.87;100587.84;5072438;28;66842;-36
2022/02/11 08:54:11;;;;;;;;;;;;;;;34.10;47.93;100583.56;5075309;28;70468;-38
2022/02/11 08:56:41;;;;;;;;;;;;;;;34.12;47.73;100589.56;5094139;27;65978;-39
2022/02/11 08:59:11;;;;;;;;;;;;;;;34.15;47.59;100589.03;5072478;28;70271;-37
2022/02/11 09:01:41;;;;;;;;;;;;;;;34.17;47.71;100589.63;5072659;28;66644;-38
2022/02/11 09:04:11;;;;;;;;;;;;;;;34.18;47.72;100591.28;5073179;28;70114;-37
2022/02/11 09:06:43;;;;;;;;;;;;;;;34.20;47.65;100591.84;5069243;28;66021;-37
2022/02/11 09:09:13;;;;;;;;;;;;;;;34.22;47.66;100592.44;5076057;28;70316;-37
2022/02/11 09:11:44;;;;;;;;;;;;;;;34.22;47.59;100587.00;5073699;28;65577;-38
2022/02/11 09:14:13;;;;;;;;;;;;;;;34.23;47.64;100594.06;5074306;28;69134;-38
2022/02/11 09:16:43;;;;;;;;;;;;;;;34.22;47.72;100581.53;5072854;28;66510;-38
2022/02/11 09:19:13;;;;;;;;;;;;;;;34.24;47.68;100589.44;5073124;28;70614;-37
2022/02/11 09:21:43;;;;;;;;;;;;;;;34.22;47.55;100592.44;5078999;28;65389;-37
2022/02/11 09:24:14;;;;;;;;;;;;;;;34.22;47.83;100600.59;5083306;27;70323;-37
2022/02/11 09:26:43;;;;;;;;;;;;;;;34.23;47.68;100601.41;5078388;27;66492;-37
2022/02/11 09:29:13;;;;;;;;;;;;;;;34.22;47.93;100614.22;5068399;28;69176;-37
2022/02/11 09:31:45;;;;;;;;;;;;;;;34.22;47.63;100614.22;5076629;28;66200;-40
2022/02/11 09:34:15;;;;;;;;;;;;;;;34.21;47.74;100607.13;5075760;28;70650;-38
2022/02/11 09:36:45;;;;;;;;;;;;;;;34.20;47.52;100602.75;5071310;28;65899;-37
2022/02/11 09:39:15;;;;;;;;;;;;;;;34.20;47.87;100610.09;5075644;28;69926;-39
2022/02/11 09:41:45;;;;;;;;;;;;;;;34.20;47.80;100615.53;5073019;28;66912;-37
2022/02/11 09:44:15;;;;;;;;;;;;;;;34.20;47.79;100621.78;5070408;28;69663;-38
2022/02/11 09:46:46;;;;;;;;;;;;;;;34.18;48.05;100629.38;5073253;27;66601;-39
2022/02/11 09:49:14;;;;;;;;;;;;;;;34.17;48.11;100627.75;5072840;28;70915;-38
2022/02/11 09:51:42;;;;;;;;;;;;;;;34.17;48.02;100622.28;5068042;28;66933;-38
2022/02/11 09:54:20;;;;;;;;;;;;;;;34.18;47.96;100634.81;5074509;28;70242;-37
2022/02/11 09:56:50;;;;;;;;;;;;;;;34.16;47.89;100626.09;5072981;28;65978;-37
2022/02/11 09:59:20;;;;;;;;;;;;;;;34.15;48.23;100624.44;5077370;27;70520;-37
2022/02/11 10:01:51;;;;;;;;;;;;;;;34.14;48.01;100622.81;5074432;28;66854;-38
2022/02/11 10:04:19;;;;;;;;;;;;;;;34.14;47.83;100638.31;5074633;28;71083;-38
2022/02/11 10:06:51;;;;;;;;;;;;;;;34.12;48.03;100635.81;5073132;27;67262;-38
2022/02/11 10:09:22;;;;;;;;;;;;;;;34.12;47.95;100644.00;5065048;28;69994;-38
2022/02/11 10:11:54;;;;;;;;;;;;;;;34.11;48.09;100645.06;5065786;28;66348;-37
2022/02/11 10:14:33;;;;;;;;;;;;;;;34.11;48.19;100645.06;5078172;28;71165;-38
2022/02/11 10:17:05;;;;;;;;;;;;;;;34.08;48.25;100645.56;5071725;28;66030;-37
2022/02/11 10:19:38;;;;;;;;;;;;;;;34.07;47.97;100649.34;5071106;27;69035;-37
2022/02/11 10:22:09;;;;;;;;;;;;;;;34.05;48.21;100647.97;5071982;28;66773;-38
2022/02/11 10:24:39;;;;;;;;;;;;;;;34.04;48.25;100655.25;5091254;27;69499;-38
2022/02/11 10:27:15;;;;;;;;;;;;;;;34.02;48.34;100652.81;5071175;27;65310;-37
2022/02/11 10:29:46;;;;;;;;;;;;;;;34.02;48.30;100665.59;5076500;28;69769;-37
2022/02/11 10:32:16;;;;;;;;;;;;;;;34.01;48.29;100661.19;5057727;28;66443;-37
2022/02/11 10:34:53;;;;;;;;;;;;;;;33.98;48.22;100645.38;5073494;27;69056;-37
2022/02/11 10:37:23;;;;;;;;;;;;;;;33.97;48.43;100651.91;5071406;28;66534;-37
2022/02/11 10:39:56;;;;;;;;;;;;;;;33.97;48.34;100649.16;5063791;28;69781;-37
2022/02/11 10:42:43;;;;;;;;;;;;;;;33.95;48.67;100651.31;5074622;27;66527;-38
2022/02/11 10:45:45;;;;;;;;;;;;;;;33.93;48.42;100648.00;5073968;28;70018;-37
2022/02/11 10:48:17;;;;;;;;;;;;;;;33.91;48.52;100652.88;5063337;27;65104;-38
2022/02/11 10:50:57;;;;;;;;;;;;;;;33.89;48.47;100653.13;5065706;28;70157;-38
2022/02/11 10:53:32;;;;;;;;;;;;;;;33.87;48.53;100655.25;5071547;28;66483;-38
2022/02/11 10:56:03;;;;;;;;;;;;;;;33.86;49.30;100658.25;5062759;28;70585;-36
2022/02/11 10:58:34;;;;;;;;;;;;;;;33.76;49.55;100654.25;5087665;27;65692;-38
2022/02/11 11:01:05;;;;;;;;;;;;;;;33.68;49.87;100668.25;5070449;28;70056;-38
2022/02/11 11:03:35;;;;;;;;;;;;;;;33.59;49.92;100653.41;5082890;27;66053;-37
2022/02/11 11:06:06;;;;;;;;;;;;;;;33.51;49.67;100651.03;5071244;28;69289;-36
2022/02/11 11:08:43;;;;;;;;;;;;;;;33.43;49.52;100659.59;5065200;28;66292;-38
2022/02/11 11:11:13;;;;;;;;;;;;;;;33.34;49.95;100657.25;5081890;27;68612;-38
2022/02/11 11:13:47;;;;;;;;;;;;;;;33.28;50.01;100666.41;5067545;27;67177;-39
2022/02/11 11:16:18;;;;;;;;;;;;;;;33.21;50.30;100668.44;5073020;28;69257;-38
2022/02/11 11:18:48;;;;;;;;;;;;;;;33.17;49.81;100683.56;5074773;28;66194;-39
2022/02/11 11:21:18;;;;;;;;;;;;;;;33.11;50.12;100679.09;5067977;28;69755;-38
2022/02/11 11:23:55;;;;;;;;;;;;;;;33.08;50.23;100687.72;5070456;28;67334;-36
2022/02/11 11:26:36;;;;;;;;;;;;;;;33.05;50.25;100686.31;5070012;28;69177;-38
2022/02/11 11:29:08;;;;;;;;;;;;;;;33.01;50.17;100684.31;5066303;28;66002;-37
2022/02/11 11:31:39;;;;;;;;;;;;;;;32.99;50.32;100689.13;5066138;28;70307;-38
2022/02/11 11:34:28;;;;;;;;;;;;;;;32.94;49.96;100689.84;5069441;28;66276;-37
2022/02/11 11:37:06;;;;;;;;;;;;;;;32.92;49.71;100692.81;5070205;28;69077;-37
2022/02/11 11:39:36;;;;;;;;;;;;;;;32.88;50.39;100699.78;5069319;28;65991;-38
2022/02/11 11:42:09;;;;;;;;;;;;;;;32.87;50.06;100717.13;5074010;28;69713;-37
2022/02/11 11:44:41;;;;;;;;;;;;;;;32.82;50.05;100719.75;5069764;28;65382;-38
2022/02/11 11:47:24;;;;;;;;;;;;;;;32.79;50.13;100708.53;5072018;28;69683;-37
2022/02/11 11:49:54;;;;;;;;;;;;;;;32.75;49.65;100710.91;5068812;28;65681;-39
2022/02/11 11:52:38;;;;;;;;;;;;;;;32.74;49.85;100711.16;5077349;27;69382;-38
2022/02/11 11:55:16;;;;;;;;;;;;;;;32.71;50.19;100717.88;5075558;28;66979;-37
2022/02/11 11:57:47;;;;;;;;;;;;;;;32.69;49.92;100730.88;5080554;28;70050;-38
2022/02/11 12:00:34;;;;;;;;;;;;;;;32.66;50.28;100728.63;5080094;28;65876;-39
2022/02/11 12:03:11;;;;;;;;;;;;;;;32.64;49.91;100730.75;5074666;27;69619;-37
2022/02/11 12:05:42;;;;;;;;;;;;;;;32.62;50.31;100735.56;5074454;28;66040;-38
2022/02/11 12:08:14;;;;;;;;;;;;;;;32.61;51.33;100744.78;5074743;28;69109;-38
2022/02/11 12:10:46;;;;;;;;;;;;;;;32.61;50.95;100747.50;5067057;28;66483;-38
2022/02/11 12:13:17;;;;;;;;;;;;;;;32.60;50.82;100754.00;5070218;28;70216;-38
2022/02/11 12:15:47;;;;;;;;;;;;;;;32.58;50.97;100750.69;5077372;28;66401;-38
2022/02/11 12:18:17;;;;;;;;;;;;;;;32.55;51.22;100757.44;5074785;28;69836;-38
2022/02/11 12:20:47;;;;;;;;;;;;;;;32.56;50.98;100758.25;5070933;28;65493;-39
2022/02/11 12:28:54;;;;;;;;;;;;;;;32.49;50.78;100780.91;5080736;28;69748;-38
2022/02/11 12:31:24;;;;;;;;;;;;;;;32.49;51.09;100780.91;5076019;28;66089;-38
2022/02/11 12:34:19;;;;;;;;;;;;;;;32.46;51.18;100786.81;5076264;28;70207;-38
2022/02/11 12:36:49;;;;;;;;;;;;;;;32.46;50.91;100786.81;5078321;28;66633;-38
2022/02/11 12:39:22;;;;;;;;;;;;;;;32.45;51.53;100790.53;5073950;28;70012;-37
2022/02/11 12:41:53;;;;;;;;;;;;;;;32.44;51.36;100798.94;5077921;28;66124;-38
2022/02/11 12:44:26;;;;;;;;;;;;;;;32.42;51.00;100791.00;5072461;28;68957;-37
2022/02/11 12:46:59;;;;;;;;;;;;;;;32.41;51.03;100794.78;5078343;28;65634;-36
2022/02/11 12:49:30;;;;;;;;;;;;;;;32.39;51.14;100799.63;5069595;28;70669;-35
2022/02/11 12:52:01;;;;;;;;;;;;;;;32.39;51.37;100796.91;5072984;28;66532;-37
2022/02/11 12:54:31;;;;;;;;;;;;;;;32.39;51.23;100802.34;5071795;28;69689;-34
2022/02/11 12:57:02;;;;;;;;;;;;;;;32.38;51.50;100806.13;5072652;28;66629;-37
2022/02/11 12:59:32;;;;;;;;;;;;;;;32.32;50.22;100807.06;5069330;28;70366;-37
2022/02/11 13:02:02;;;;;;;;;;;;;;;32.21;49.06;100810.56;5078684;28;66377;-36
2022/02/11 13:04:32;;;;;;;;;;;;;;;32.05;47.95;100812.84;5090546;27;70269;-36
2022/02/11 13:07:02;;;;;;;;;;;;;;;31.96;48.12;100821.56;5069650;28;66093;-35
2022/02/11 13:09:33;;;;;;;;;;;;;;;31.85;46.89;100816.88;5070911;28;68955;-35
2022/02/11 13:12:08;;;;;;;;;;;;;;;31.73;46.55;100827.63;5070551;27;66407;-36
2022/02/11 13:14:44;;;;;;;;;;;;;;;31.59;46.65;100830.53;5083889;27;70252;-36
2022/02/11 13:17:14;;;;;;;;;;;;;;;31.53;46.34;100830.59;5068804;28;65696;-38
2022/02/11 13:19:47;;;;;;;;;;;;;;;31.44;46.10;100827.34;5072719;28;70475;-41
2022/02/11 13:22:19;;;;;;;;;;;;;;;31.39;45.54;100835.34;5071778;27;66135;-38
2022/02/11 13:24:49;;;;;;;;;;;;;;;31.34;45.71;100827.84;5067400;28;70738;-38
2022/02/11 13:27:19;;;;;;;;;;;;;;;31.30;46.17;100831.22;5070958;28;66594;-38
2022/02/11 13:30:02;;;;;;;;;;;;;;;31.24;46.01;100829.44;5074296;28;69966;-37
2022/02/11 13:32:32;;;;;;;;;;;;;;;31.20;46.81;100848.00;5086721;27;66231;-37
2022/02/11 13:35:05;;;;;;;;;;;;;;;31.17;46.71;100840.31;5075740;28;70663;-36
2022/02/11 13:37:36;;;;;;;;;;;;;;;31.10;45.77;100848.50;5072129;28;66226;-37
2022/02/11 13:40:25;;;;;;;;;;;;;;;31.05;45.52;100851.06;5071917;27;69238;-39
2022/02/11 13:43:03;;;;;;;;;;;;;;;30.99;44.80;100846.53;5069382;27;66377;-38
2022/02/11 13:45:51;;;;;;;;;;;;;;;30.93;44.27;100853.66;5048581;28;70192;-40
2022/02/11 13:48:23;;;;;;;;;;;;;;;30.86;43.82;100846.66;5070465;28;65558;-38
2022/02/11 13:51:02;;;;;;;;;;;;;;;30.81;44.04;100849.19;5078133;28;69929;-40
2022/02/11 13:53:35;;;;;;;;;;;;;;;30.73;43.25;100848.38;5070133;27;65667;-40
2022/02/11 13:56:07;;;;;;;;;;;;;;;30.67;42.81;100843.84;5087077;27;70772;-40
2022/02/11 13:58:39;;;;;;;;;;;;;;;30.62;43.41;100849.09;5076012;28;65444;-38
2022/02/11 14:01:26;;;;;;;;;;;;;;;30.60;42.69;100853.06;5065147;28;69572;-39
2022/02/11 14:04:00;;;;;;;;;;;;;;;30.56;43.41;100858.06;5074739;28;65432;-40
2022/02/11 14:06:37;;;;;;;;;;;;;;;30.51;42.92;100855.22;5073782;28;69399;-39
2022/02/11 14:09:08;;;;;;;;;;;;;;;30.47;42.75;100853.97;5079770;28;66479;-40
2022/02/11 14:11:39;;;;;;;;;;;;;;;30.41;41.40;100857.56;5071446;28;69452;-40
2022/02/11 14:14:17;;;;;;;;;;;;;;;30.37;41.71;100853.63;5078841;28;65499;-39
2022/02/11 14:16:48;;;;;;;;;;;;;;;30.31;41.97;100860.72;5072574;27;69593;-40
2022/02/11 14:19:24;;;;;;;;;;;;;;;30.27;41.89;100865.75;5071509;28;67239;-40
2022/02/11 14:21:59;;;;;;;;;;;;;;;30.22;41.23;100868.28;5071835;28;70232;-38
2022/02/11 14:24:30;;;;;;;;;;;;;;;30.20;41.63;100864.94;5072969;28;65243;-38
2022/02/11 14:27:00;;;;;;;;;;;;;;;30.16;40.90;100874.53;5071750;28;69363;-39
2022/02/11 14:29:31;;;;;;;;;;;;;;;30.13;41.03;100874.94;5087539;27;66977;-39
2022/02/11 14:32:01;;;;;;;;;;;;;;;30.03;41.10;100856.50;5073514;28;70133;-40
2022/02/11 14:34:31;;;;;;;;;;;;;;;30.02;41.17;100865.63;5064100;28;65974;-39
2022/02/11 14:37:01;;;;;;;;;;;;;;;30.03;40.93;100863.75;5065616;28;70127;-39
2022/02/11 14:39:31;;;;;;;;;;;;;;;30.05;40.86;100851.69;5050439;28;66052;-38
2022/02/11 14:42:02;;;;;;;;;;;;;;;30.06;40.89;100847.09;5067420;28;69900;-39
2022/02/11 14:44:33;;;;;;;;;;;;;;;30.06;40.80;100850.66;5069630;28;64991;-40
2022/02/11 14:47:04;;;;;;;;;;;;;;;30.04;40.39;100843.78;5070225;28;69708;-40
2022/02/11 14:49:35;;;;;;;;;;;;;;;30.02;40.33;100845.88;5086275;27;66522;-40
2022/02/11 14:52:07;;;;;;;;;;;;;;;30.00;40.10;100839.84;5070645;28;69924;-38
2022/02/11 14:54:37;;;;;;;;;;;;;;;29.98;40.05;100839.25;5065456;28;66822;-40
2022/02/11 14:57:08;;;;;;;;;;;;;;;29.96;39.65;100835.94;5065236;28;69071;-39
2022/02/11 14:59:38;;;;;;;;;;;;;;;29.94;39.64;100843.41;5084506;27;66173;-39
2022/02/11 15:02:08;;;;;;;;;;;;;;;29.91;39.48;100850.09;5061438;28;69902;-39
2022/02/11 15:04:38;;;;;;;;;;;;;;;29.89;39.49;100851.34;5063706;28;65044;-39
2022/02/11 15:07:08;;;;;;;;;;;;;;;29.84;39.20;100843.88;5069610;28;70455;-39
2022/02/11 15:09:38;;;;;;;;;;;;;;;29.82;39.02;100846.78;5080931;27;65761;-39
2022/02/11 15:12:09;;;;;;;;;;;;;;;29.80;38.68;100842.63;5067072;27;69775;-38
2022/02/11 15:14:39;;;;;;;;;;;;;;;29.78;39.41;100852.84;5066548;28;67237;-39
2022/02/11 15:17:11;;;;;;;;;;;;;;;29.75;39.12;100855.97;5067713;28;70428;-38
2022/02/11 15:19:41;;;;;;;;;;;;;;;29.72;39.30;100857.22;5070861;27;66492;-39
2022/02/11 15:22:13;;;;;;;;;;;;;;;29.71;39.08;100863.69;5067078;28;70512;-39
2022/02/11 15:24:48;;;;;;;;;;;;;;;29.69;38.87;100857.66;5064868;28;66425;-40
2022/02/11 15:27:18;;;;;;;;;;;;;;;29.67;38.61;100859.75;5069247;28;69172;-38
2022/02/11 15:29:48;;;;;;;;;;;;;;;29.66;38.75;100858.06;5063198;28;66264;-38
2022/02/11 15:32:18;;;;;;;;;;;;;;;29.65;38.65;100856.44;5082586;27;68905;-38
2022/02/11 15:34:47;;;;;;;;;;;;;;;29.61;38.93;100855.13;5066353;27;65195;-40
2022/02/11 15:37:17;;;;;;;;;;;;;;;29.60;38.90;100865.13;5066755;28;69646;-37
2022/02/11 15:39:47;;;;;;;;;;;;;;;29.57;38.86;100854.75;5066696;28;66422;-38
2022/02/11 15:42:17;;;;;;;;;;;;;;;29.55;38.77;100862.22;5062824;28;70296;-36
2022/02/11 15:44:47;;;;;;;;;;;;;;;29.53;39.02;100858.06;5073978;28;65974;-38
2022/02/11 15:47:18;;;;;;;;;;;;;;;29.51;38.88;100852.06;5077073;28;67834;-39
2022/02/11 15:49:48;;;;;;;;;;;;;;;29.49;38.38;100851.44;5092013;27;66581;-38
2022/02/11 15:52:20;;;;;;;;;;;;;;;29.46;38.75;100854.56;5090241;27;69120;-38
2022/02/11 15:54:50;;;;;;;;;;;;;;;29.43;38.14;100846.91;5077832;28;66586;-38
2022/02/11 15:57:20;;;;;;;;;;;;;;;29.42;38.47;100851.47;5071388;28;69598;-37
2022/02/11 15:59:50;;;;;;;;;;;;;;;29.39;38.15;100852.72;5074111;27;65918;-37
2022/02/11 16:02:22;;;;;;;;;;;;;;;29.37;38.59;100857.50;5073754;28;69751;-37
2022/02/11 16:04:52;;;;;;;;;;;;;;;29.35;38.02;100850.63;5071882;28;66062;-37
2022/02/11 16:07:27;;;;;;;;;;;;;;;29.33;38.06;100848.13;5066718;28;69878;-40
2022/02/11 16:09:57;;;;;;;;;;;;;;;29.31;38.50;100846.69;5071129;28;66611;-37
2022/02/11 16:12:33;;;;;;;;;;;;;;;29.29;38.23;100841.50;5067103;28;68969;-39
2022/02/11 16:15:03;;;;;;;;;;;;;;;29.30;38.49;100848.56;5070099;28;66588;-39
2022/02/11 16:17:59;;;;;;;;;;;;;;;29.28;38.74;100845.25;5067138;28;70541;-38
2022/02/11 16:20:23;;;;;;;;;;;;;;;29.26;38.42;100844.63;5070482;28;65679;-37
2022/02/11 16:22:53;;;;;;;;;;;;;;;29.25;38.24;100839.44;5075493;28;69647;-37
2022/02/11 16:25:23;;;;;;;;;;;;;;;29.23;38.37;100853.16;5071993;28;65901;-37
2022/02/11 16:27:53;;;;;;;;;;;;;;;29.22;38.17;100850.66;5072625;27;70265;-39
2022/02/11 16:30:23;;;;;;;;;;;;;;;29.18;38.21;100839.44;5065480;28;66957;-40
2022/02/11 16:32:55;;;;;;;;;;;;;;;29.17;38.16;100845.91;5074863;28;69814;-39
2022/02/11 16:35:24;;;;;;;;;;;;;;;29.14;38.21;100849.00;5077255;28;66116;-40
2022/02/11 16:37:54;;;;;;;;;;;;;;;29.14;38.36;100851.69;5073013;28;69705;-40
2022/02/11 16:40:25;;;;;;;;;;;;;;;29.14;38.29;100849.00;5092865;27;65311;-38
2022/02/11 16:42:55;;;;;;;;;;;;;;;29.13;38.15;100847.34;5077065;28;70792;-38